Time;durP1;ratioP1;P1;durP2;ratioP2;P2;SDS_P1;SDS_P2;PMS_P1;PMS_P2;Temp;Humidity;BMP_temperature;BMP_pressure;BME280_temperature;BME280_humidity;BME280_pressure;Samples;Min_cycle;Max_cycle;Signal;HPM_P1;HPM_P2
2022/04/17 00:00:24;;;;;;;1.93;1.60;;;17.30;57.80;;;;;;5204457;28;20684;-60
2022/04/17 00:03:16;;;;;;;2.47;1.43;;;17.30;57.90;;;;;;5203890;28;20205;-62
2022/04/17 00:06:10;;;;;;;2.00;1.47;;;17.30;57.90;;;;;;5203876;28;20592;-62
2022/04/17 00:09:02;;;;;;;1.70;1.60;;;17.30;57.90;;;;;;5199339;28;20220;-61
2022/04/17 00:11:55;;;;;;;1.87;1.60;;;17.30;58.00;;;;;;5215527;28;20208;-61
2022/04/17 00:14:47;;;;;;;2.30;1.70;;;17.30;57.90;;;;;;5189885;28;20244;-61
2022/04/17 00:17:42;;;;;;;2.17;1.80;;;17.30;57.90;;;;;;5204363;28;20194;-61
2022/04/17 00:20:34;;;;;;;1.73;1.60;;;17.30;57.90;;;;;;5198625;28;20234;-60
2022/04/17 00:23:26;;;;;;;3.10;1.90;;;17.30;57.90;;;;;;5189948;28;20233;-61
2022/04/17 00:26:19;;;;;;;2.33;1.63;;;17.30;57.90;;;;;;5211722;28;20743;-59
2022/04/17 00:29:12;;;;;;;2.93;1.80;;;17.30;58.00;;;;;;5223376;28;20209;-61
2022/04/17 00:32:05;;;;;;;2.03;1.80;;;17.30;57.90;;;;;;5224281;28;20603;-60
2022/04/17 00:34:57;;;;;;;1.70;1.40;;;17.30;58.00;;;;;;5208180;28;20226;-61
2022/04/17 00:37:49;;;;;;;2.33;1.73;;;17.30;58.00;;;;;;5184233;28;20252;-60
2022/04/17 00:40:41;;;;;;;1.93;1.67;;;17.30;58.00;;;;;;5184153;28;20203;-61
2022/04/17 00:43:43;;;;;;;1.93;1.60;;;17.30;58.00;;;;;;5206317;28;20197;-62
2022/04/17 00:46:37;;;;;;;2.40;1.60;;;17.30;58.00;;;;;;5219954;28;20283;-60
2022/04/17 00:49:29;;;;;;;5.23;1.83;;;17.30;58.00;;;;;;5188463;28;20186;-60
2022/04/17 00:52:22;;;;;;;1.90;1.47;;;17.30;58.10;;;;;;5226482;28;20200;-61
2022/04/17 00:55:16;;;;;;;2.97;1.90;;;17.30;58.00;;;;;;5227631;28;20592;-61
2022/04/17 00:58:09;;;;;;;2.90;1.97;;;17.30;57.90;;;;;;5228124;28;20563;-61
2022/04/17 01:01:01;;;;;;;2.03;1.53;;;17.30;58.00;;;;;;5209817;28;20213;-62
2022/04/17 01:03:54;;;;;;;3.20;1.53;;;17.30;58.00;;;;;;5187565;28;20203;-61
2022/04/17 01:06:46;;;;;;;3.10;2.40;;;17.30;58.00;;;;;;5187437;28;20205;-60
2022/04/17 01:09:40;;;;;;;2.53;1.87;;;17.30;58.10;;;;;;5198790;28;20269;-61
2022/04/17 01:12:32;;;;;;;2.27;1.80;;;17.30;58.00;;;;;;5211739;28;20680;-61
2022/04/17 01:15:24;;;;;;;2.37;1.87;;;17.30;58.00;;;;;;5207310;28;20221;-60
2022/04/17 01:18:16;;;;;;;2.87;2.10;;;17.30;58.00;;;;;;5207322;28;20205;-62
2022/04/17 01:21:10;;;;;;;2.80;2.20;;;17.30;58.00;;;;;;5206600;28;20201;-61
2022/04/17 01:27:14;;;;;;;1.97;1.50;;;17.30;58.00;;;;;;5187214;28;20199;-62
2022/04/17 01:30:07;;;;;;;2.33;1.83;;;17.30;58.00;;;;;;5187766;28;20207;-63
2022/04/17 01:32:59;;;;;;;4.27;1.87;;;17.30;58.00;;;;;;5186932;28;20205;-61
2022/04/17 01:35:51;;;;;;;2.57;1.90;;;17.30;58.10;;;;;;5186808;28;20217;-60
2022/04/17 01:38:43;;;;;;;2.57;1.93;;;17.30;58.00;;;;;;5186909;28;20194;-61
2022/04/17 01:41:37;;;;;;;2.40;1.73;;;17.30;58.00;;;;;;5186720;28;20241;-62
2022/04/17 01:44:30;;;;;;;3.53;2.00;;;17.30;58.10;;;;;;5187244;28;20218;-61
2022/04/17 01:47:22;;;;;;;2.63;2.10;;;17.30;58.10;;;;;;5187310;28;20194;-60
2022/04/17 01:50:14;;;;;;;2.43;1.67;;;17.30;58.10;;;;;;5195918;28;20198;-61
2022/04/17 01:53:06;;;;;;;2.17;1.83;;;17.30;58.10;;;;;;5186771;28;20195;-61
2022/04/17 01:56:00;;;;;;;3.17;2.07;;;17.30;58.10;;;;;;5186399;28;20228;-62
2022/04/17 01:58:53;;;;;;;2.20;1.80;;;17.30;58.10;;;;;;5186977;28;20195;-60
2022/04/17 02:01:46;;;;;;;3.80;2.00;;;17.30;58.10;;;;;;5186405;28;20191;-61
2022/04/17 02:04:38;;;;;;;3.83;2.00;;;17.30;58.20;;;;;;5187183;28;20220;-61
2022/04/17 02:07:30;;;;;;;2.57;2.20;;;17.30;58.00;;;;;;5202057;28;20198;-61
2022/04/17 02:10:22;;;;;;;3.37;2.50;;;17.30;58.20;;;;;;5214914;28;20205;-60
2022/04/17 02:13:15;;;;;;;4.20;1.80;;;17.30;58.20;;;;;;5186641;28;20330;-61
2022/04/17 02:16:09;;;;;;;3.17;2.03;;;17.30;58.20;;;;;;5185736;28;20215;-60
2022/04/17 02:19:02;;;;;;;3.13;1.90;;;17.20;58.20;;;;;;5194451;28;20190;-61
2022/04/17 02:21:54;;;;;;;4.10;2.07;;;17.20;58.20;;;;;;5186566;28;20202;-61
2022/04/17 02:24:46;;;;;;;2.97;2.00;;;17.30;58.20;;;;;;5186458;28;20214;-60
2022/04/17 02:27:38;;;;;;;3.07;2.20;;;17.20;58.20;;;;;;5186649;28;20590;-61
2022/04/17 02:30:30;;;;;;;2.67;2.03;;;17.20;58.10;;;;;;5191452;28;20229;-61
2022/04/17 02:33:24;;;;;;;2.70;2.20;;;17.30;58.20;;;;;;5219881;28;20195;-61
2022/04/17 02:36:16;;;;;;;2.60;2.03;;;17.20;58.10;;;;;;5225608;28;20225;-60
2022/04/17 02:39:08;;;;;;;2.63;1.93;;;17.20;58.10;;;;;;5225740;28;20189;-62
2022/04/17 02:42:00;;;;;;;3.10;2.13;;;17.20;58.10;;;;;;5202810;28;20202;-61
2022/04/17 02:44:52;;;;;;;2.70;1.97;;;17.20;58.20;;;;;;5211488;28;20717;-61
2022/04/17 02:47:45;;;;;;;3.80;2.30;;;17.20;58.20;;;;;;5205900;28;20701;-61
2022/04/17 02:50:38;;;;;;;2.13;1.60;;;17.30;58.10;;;;;;5211064;28;20571;-61
2022/04/17 02:53:32;;;;;;;3.20;2.13;;;17.20;58.10;;;;;;5225601;28;20225;-61
2022/04/17 02:56:24;;;;;;;4.20;2.20;;;17.20;58.20;;;;;;5194717;28;20597;-61
2022/04/17 02:59:16;;;;;;;3.43;2.43;;;17.20;58.20;;;;;;5185745;28;20578;-62
2022/04/17 03:08:28;;;;;;;2.40;2.07;;;17.20;58.10;;;;;;5184148;28;20220;-61
2022/04/17 03:11:20;;;;;;;3.57;2.23;;;17.20;58.20;;;;;;5205775;28;20407;-60
2022/04/17 03:14:13;;;;;;;2.77;2.20;;;17.20;58.20;;;;;;5204784;28;20194;-61
2022/04/17 03:17:14;;;;;;;2.87;1.93;;;17.20;58.20;;;;;;5204698;28;20661;-61
2022/04/17 03:20:07;;;;;;;4.03;2.27;;;17.20;58.20;;;;;;5205184;28;20201;-62
2022/04/17 03:22:59;;;;;;;3.63;2.23;;;17.20;58.20;;;;;;5204348;28;20197;-61
2022/04/17 03:25:53;;;;;;;3.50;2.43;;;17.20;58.20;;;;;;5204685;28;20898;-61
2022/04/17 03:28:45;;;;;;;3.33;2.40;;;17.20;58.10;;;;;;5204591;28;20240;-61
2022/04/17 03:31:38;;;;;;;3.67;2.47;;;17.20;58.20;;;;;;5201716;28;20577;-61
2022/04/17 03:34:30;;;;;;;2.83;2.13;;;17.20;58.20;;;;;;5204595;28;20228;-61
2022/04/17 03:37:22;;;;;;;2.30;2.10;;;17.20;58.20;;;;;;5204650;28;20193;-62
2022/04/17 03:40:16;;;;;;;4.13;2.23;;;17.20;58.20;;;;;;5203884;28;20273;-61
2022/04/17 03:43:11;;;;;;;3.80;2.60;;;17.20;58.20;;;;;;5204657;28;20704;-61
2022/04/17 03:46:03;;;;;;;3.40;2.23;;;17.20;58.10;;;;;;5201889;28;20213;-60
2022/04/17 03:48:55;;;;;;;4.03;2.40;;;17.20;58.20;;;;;;5224643;28;20710;-61
2022/04/17 03:51:47;;;;;;;3.73;2.40;;;17.20;58.20;;;;;;5208711;28;20197;-59
2022/04/17 03:54:39;;;;;;;3.83;2.40;;;17.20;58.10;;;;;;5204210;28;20217;-60
2022/04/17 03:57:31;;;;;;;2.60;2.10;;;17.30;58.20;;;;;;5203771;28;20225;-61
2022/04/17 04:00:25;;;;;;;4.00;2.40;;;17.20;58.10;;;;;;5203860;28;20196;-61
2022/04/17 04:03:17;;;;;;;3.70;2.37;;;17.20;58.10;;;;;;5203816;28;20217;-60
2022/04/17 04:06:09;;;;;;;3.23;1.90;;;17.20;58.10;;;;;;5204171;28;20218;-61
2022/04/17 04:09:01;;;;;;;3.80;2.37;;;17.20;58.20;;;;;;5207246;28;20216;-61
2022/04/17 04:11:53;;;;;;;3.00;2.27;;;17.20;58.20;;;;;;5206279;28;20195;-61
2022/04/17 04:14:45;;;;;;;3.90;2.60;;;17.20;58.20;;;;;;5204006;28;20213;-61
2022/04/17 04:17:39;;;;;;;2.77;2.17;;;17.20;58.20;;;;;;5204543;28;20235;-62
2022/04/17 04:20:31;;;;;;;3.73;2.50;;;17.20;58.10;;;;;;5204600;28;20693;-61
2022/04/17 04:23:23;;;;;;;4.03;2.77;;;17.20;58.00;;;;;;5188843;28;20255;-61
2022/04/17 04:26:15;;;;;;;3.53;2.40;;;17.20;58.00;;;;;;5184066;28;20598;-61
2022/04/17 04:29:06;;;;;;;3.63;2.40;;;17.20;58.10;;;;;;5183779;28;20230;-61
2022/04/17 04:31:58;;;;;;;2.97;2.30;;;17.20;58.10;;;;;;5183834;28;20202;-61
2022/04/17 04:34:56;;;;;;;2.53;2.20;;;17.20;58.70;;;;;;5183503;28;20227;-61
2022/04/17 04:37:48;;;;;;;2.37;2.10;;;17.20;58.20;;;;;;5207953;28;20197;-59
2022/04/17 04:40:40;;;;;;;3.67;2.50;;;17.20;58.20;;;;;;5210609;28;20224;-61
2022/04/17 04:43:33;;;;;;;3.17;2.37;;;17.20;58.20;;;;;;5219309;28;20212;-60
2022/04/17 04:46:25;;;;;;;3.10;2.30;;;17.20;58.00;;;;;;5223550;28;20208;-61
2022/04/17 04:49:32;;;;;;;3.10;2.50;;;17.20;58.10;;;;;;5204005;28;20721;-61
2022/04/17 04:52:25;;;;;;;3.20;2.30;;;17.20;58.20;;;;;;5224846;28;20193;-61
2022/04/17 04:55:18;;;;;;;3.57;2.37;;;17.20;58.20;;;;;;5223909;28;20213;-60
2022/04/17 04:58:10;;;;;;;3.30;2.00;;;17.20;58.00;;;;;;5223021;28;20572;-61
2022/04/17 05:01:02;;;;;;;2.80;2.10;;;17.20;58.10;;;;;;5223158;28;20206;-61
2022/04/17 05:03:54;;;;;;;2.83;2.30;;;17.20;58.20;;;;;;5183004;28;20270;-61
2022/04/17 05:06:47;;;;;;;3.47;2.40;;;17.20;58.00;;;;;;5193575;28;20273;-61
2022/04/17 05:09:40;;;;;;;2.40;2.07;;;17.20;58.10;;;;;;5204541;28;20366;-61
2022/04/17 05:12:32;;;;;;;4.03;2.53;;;17.20;58.10;;;;;;5214053;28;20199;-61
2022/04/17 05:15:24;;;;;;;2.70;2.13;;;17.20;58.10;;;;;;5223472;28;20217;-62
2022/04/17 05:18:16;;;;;;;2.90;2.23;;;17.20;58.00;;;;;;5223473;28;20204;-60
2022/04/17 05:21:08;;;;;;;2.97;2.50;;;17.20;58.00;;;;;;5223293;28;20208;-61
2022/04/17 05:24:02;;;;;;;2.37;1.93;;;17.20;57.90;;;;;;5211339;28;20198;-62
2022/04/17 05:26:55;;;;;;;3.67;2.47;;;17.20;57.90;;;;;;5196229;28;20297;-60
2022/04/17 05:29:47;;;;;;;2.90;2.20;;;17.30;58.10;;;;;;5203759;28;20221;-61
2022/04/17 05:32:39;;;;;;;3.37;2.30;;;17.30;58.00;;;;;;5206680;28;20206;-61
2022/04/17 05:35:31;;;;;;;3.27;2.30;;;17.20;57.90;;;;;;5207401;28;20596;-61
2022/04/17 05:38:23;;;;;;;2.47;2.10;;;17.20;57.90;;;;;;5206846;28;20194;-61
2022/04/17 05:41:16;;;;;;;3.07;2.20;;;17.20;57.90;;;;;;5207159;28;20198;-60
2022/04/17 05:44:10;;;;;;;3.97;2.43;;;17.20;58.00;;;;;;5206605;28;20202;-61
2022/04/17 05:47:03;;;;;;;3.10;2.13;;;17.20;58.00;;;;;;5207072;28;20209;-60
2022/04/17 05:49:55;;;;;;;3.70;2.17;;;17.30;57.90;;;;;;5205748;28;20220;-61
2022/04/17 05:52:47;;;;;;;2.40;2.20;;;17.20;58.00;;;;;;5213809;28;20200;-61
2022/04/17 05:55:41;;;;;;;3.60;2.13;;;17.30;58.00;;;;;;5187151;28;20215;-61
2022/04/17 05:58:33;;;;;;;3.57;2.47;;;17.30;58.10;;;;;;5188366;28;20206;-60
2022/04/17 06:01:29;;;;;;;3.00;2.10;;;17.30;57.90;;;;;;5186310;28;20205;-61
2022/04/17 06:04:21;;;;;;;3.03;2.30;;;17.30;57.90;;;;;;5186368;28;20191;-61
2022/04/17 06:07:13;;;;;;;3.40;2.30;;;17.20;57.90;;;;;;5186886;28;20194;-61
2022/04/17 06:10:07;;;;;;;3.23;2.10;;;17.20;58.10;;;;;;5205998;28;20217;-61
2022/04/17 06:12:59;;;;;;;2.73;1.63;;;17.30;57.90;;;;;;5226348;28;20193;-60
2022/04/17 06:15:51;;;;;;;2.83;2.00;;;17.30;57.90;;;;;;5205493;28;20222;-60
2022/04/17 06:18:45;;;;;;;2.80;2.10;;;17.30;58.00;;;;;;5206765;28;20277;-61
2022/04/17 06:21:38;;;;;;;3.77;2.20;;;17.20;57.90;;;;;;5206370;28;20221;-61
2022/04/17 06:24:30;;;;;;;3.00;2.07;;;17.30;58.00;;;;;;5187409;28;20221;-61
2022/04/17 06:27:22;;;;;;;2.33;1.93;;;17.30;58.00;;;;;;5200943;28;20657;-61
2022/04/17 06:30:15;;;;;;;3.83;2.23;;;17.20;57.90;;;;;;5205971;28;20213;-61
2022/04/17 06:33:07;;;;;;;3.00;1.70;;;17.20;58.00;;;;;;5205029;28;20631;-61
2022/04/17 06:36:00;;;;;;;2.73;1.90;;;17.20;58.00;;;;;;5216691;28;20233;-61
2022/04/17 06:38:53;;;;;;;3.00;1.80;;;17.20;58.00;;;;;;5216266;28;20755;-61
2022/04/17 06:41:45;;;;;;;2.73;1.83;;;17.30;58.00;;;;;;5216188;28;20685;-62
2022/04/17 06:44:37;;;;;;;3.40;1.83;;;17.20;58.00;;;;;;5215377;28;20759;-61
2022/04/17 06:47:31;;;;;;;2.77;2.10;;;17.20;58.00;;;;;;5215849;28;20197;-61
2022/04/17 06:50:24;;;;;;;2.70;2.07;;;17.20;57.90;;;;;;5216295;28;20223;-60
2022/04/17 06:53:18;;;;;;;2.57;1.60;;;17.20;58.10;;;;;;5213513;28;20194;-61
2022/04/17 06:56:12;;;;;;;2.70;2.20;;;17.20;58.10;;;;;;5216926;28;20209;-61
2022/04/17 06:59:05;;;;;;;2.67;1.83;;;17.30;58.00;;;;;;5213614;28;20182;-58
2022/04/17 07:01:57;;;;;;;2.30;1.90;;;17.20;57.90;;;;;;5215688;28;20320;-61
2022/04/17 07:04:49;;;;;;;2.60;1.87;;;17.20;57.90;;;;;;5215316;28;20228;-60
2022/04/17 07:07:42;;;;;;;2.23;1.67;;;17.20;57.90;;;;;;5212077;28;20189;-61
2022/04/17 07:10:37;;;;;;;3.50;2.30;;;17.20;57.90;;;;;;5217730;28;20214;-59
2022/04/17 07:13:30;;;;;;;2.43;1.80;;;17.20;57.90;;;;;;5225913;28;20200;-61
2022/04/17 07:16:22;;;;;;;2.43;1.80;;;17.20;58.00;;;;;;5185687;28;20298;-61
2022/04/17 07:19:16;;;;;;;2.30;1.83;;;17.30;58.10;;;;;;5200948;28;20189;-61
2022/04/17 07:22:10;;;;;;;1.80;1.70;;;17.20;58.00;;;;;;5214431;28;20211;-61
2022/04/17 07:25:05;;;;;;;3.30;2.03;;;17.20;58.10;;;;;;5192209;28;20205;-59
2022/04/17 07:27:58;;;;;;;2.63;1.80;;;17.20;58.10;;;;;;5205507;28;20194;-62
2022/04/17 07:30:50;;;;;;;2.27;1.70;;;17.20;58.10;;;;;;5236550;22;20230;-62
2022/04/17 07:33:42;;;;;;;2.73;1.90;;;17.20;58.10;;;;;;5216728;28;20569;-63
2022/04/17 07:36:34;;;;;;;3.30;1.90;;;17.20;58.20;;;;;;5224505;28;20208;-62
2022/04/17 07:39:26;;;;;;;3.33;2.00;;;17.20;58.10;;;;;;5225272;28;20189;-62
2022/04/17 07:42:21;;;;;;;2.03;1.70;;;17.20;58.00;;;;;;5222517;28;20314;-62
2022/04/17 07:45:15;;;;;;;3.50;1.90;;;17.20;58.10;;;;;;5225215;28;20193;-62
2022/04/17 07:48:08;;;;;;;1.87;1.60;;;17.20;58.10;;;;;;5207411;28;20220;-62
2022/04/17 07:51:00;;;;;;;3.10;1.90;;;17.20;58.20;;;;;;5233947;28;20610;-62
2022/04/17 07:53:52;;;;;;;3.50;2.00;;;17.20;58.20;;;;;;5224528;28;20197;-62
2022/04/17 07:56:44;;;;;;;2.60;1.80;;;17.20;58.30;;;;;;5225764;28;20566;-61
2022/04/17 07:59:37;;;;;;;2.23;1.63;;;17.20;58.30;;;;;;5225505;28;20185;-62
2022/04/17 08:02:39;;;;;;;2.40;1.63;;;17.20;58.20;;;;;;5220488;28;20228;-62
2022/04/17 08:05:32;;;;;;;2.70;1.70;;;17.20;58.20;;;;;;5224362;28;20695;-62
2022/04/17 08:08:24;;;;;;;2.30;1.63;;;17.20;58.30;;;;;;5218887;28;20577;-62
2022/04/17 08:11:16;;;;;;;2.70;1.90;;;17.20;58.30;;;;;;5224591;28;20219;-61
2022/04/17 08:14:08;;;;;;;3.90;1.67;;;17.20;58.20;;;;;;5224994;28;20197;-61
2022/04/17 08:17:00;;;;;;;4.23;1.70;;;17.20;58.20;;;;;;5242043;28;20275;-62
2022/04/17 08:19:53;;;;;;;2.03;1.57;;;17.20;58.10;;;;;;5245252;28;20189;-62
2022/04/17 08:22:46;;;;;;;3.03;1.90;;;17.20;58.20;;;;;;5224664;28;20212;-61
2022/04/17 08:25:38;;;;;;;2.37;1.40;;;17.20;58.20;;;;;;5225528;28;20193;-63
2022/04/17 08:28:31;;;;;;;1.80;1.20;;;17.20;58.10;;;;;;5225190;28;20669;-62
2022/04/17 08:31:23;;;;;;;2.27;1.40;;;17.20;58.10;;;;;;5232684;28;20239;-62
2022/04/17 08:34:15;;;;;;;2.43;1.67;;;17.20;58.10;;;;;;5254669;28;20203;-62
2022/04/17 08:37:08;;;;;;;2.43;1.50;;;17.20;58.00;;;;;;5244338;28;20198;-62
2022/04/17 08:40:00;;;;;;;1.90;1.50;;;17.20;58.00;;;;;;5244675;28;20189;-62
2022/04/17 08:42:52;;;;;;;2.10;1.50;;;17.20;58.10;;;;;;5244005;28;20200;-61
2022/04/17 08:45:44;;;;;;;1.80;1.47;;;17.20;58.00;;;;;;5244058;28;20249;-62
2022/04/17 08:48:37;;;;;;;1.90;1.53;;;17.20;58.10;;;;;;5244315;28;20203;-62
2022/04/17 08:51:32;;;;;;;3.07;1.80;;;17.20;58.00;;;;;;5248056;28;20224;-61
2022/04/17 08:54:26;;;;;;;2.87;1.47;;;17.20;57.90;;;;;;5244819;28;20197;-63
2022/04/17 08:57:19;;;;;;;2.03;1.30;;;17.20;57.90;;;;;;5225468;28;20215;-62
2022/04/17 09:00:14;;;;;;;1.77;1.30;;;17.20;57.90;;;;;;5236305;28;20189;-62
2022/04/17 09:03:09;;;;;;;1.40;1.20;;;17.20;57.80;;;;;;5245884;28;20196;-62
2022/04/17 09:06:01;;;;;;;2.70;1.60;;;17.20;57.90;;;;;;5247049;28;20199;-62
2022/04/17 09:09:05;;;;;;;2.43;1.57;;;17.20;57.70;;;;;;5249876;28;20291;-62
2022/04/17 09:11:59;;;;;;;2.13;1.30;;;17.30;57.90;;;;;;5248294;28;20212;-62
2022/04/17 09:14:51;;;;;;;2.57;1.20;;;17.20;57.90;;;;;;5245958;28;20588;-62
2022/04/17 09:17:44;;;;;;;2.40;1.10;;;17.30;58.00;;;;;;5239022;28;20267;-62
2022/04/17 09:20:36;;;;;;;2.73;1.40;;;17.20;57.80;;;;;;5248799;28;20208;-62
2022/04/17 09:23:36;;;;;;;1.47;1.07;;;17.30;58.00;;;;;;5248568;28;20660;-63
2022/04/17 09:26:28;;;;;;;1.93;1.33;;;17.30;57.80;;;;;;5246114;28;20196;-62
2022/04/17 09:29:24;;;;;;;1.20;1.10;;;17.20;57.60;;;;;;5249072;28;20200;-61
2022/04/17 09:32:21;;;;;;;2.07;1.30;;;17.30;57.60;;;;;;5249104;28;20299;-62
2022/04/17 09:35:14;;;;;;;1.97;1.17;;;17.20;57.70;;;;;;5228193;28;20247;-61
2022/04/17 09:38:07;;;;;;;2.27;1.30;;;17.20;57.60;;;;;;5228266;28;20196;-62
2022/04/17 09:41:05;;;;;;;1.37;1.07;;;17.30;57.60;;;;;;5227550;28;20213;-62
2022/04/17 09:43:57;;;;;;;2.40;1.13;;;17.20;57.60;;;;;;5228898;28;20194;-61
2022/04/17 09:46:58;;;;;;;1.83;1.23;;;17.20;57.60;;;;;;5227660;28;20205;-61
2022/04/17 09:49:52;;;;;;;2.90;0.90;;;17.20;57.50;;;;;;5246207;28;20633;-62
2022/04/17 09:52:45;;;;;;;1.20;1.10;;;17.20;57.40;;;;;;5228329;28;20185;-62
2022/04/17 09:55:38;;;;;;;1.00;0.90;;;17.20;57.40;;;;;;5228333;28;20327;-62
2022/04/17 09:58:30;;;;;;;1.17;1.07;;;17.20;57.50;;;;;;5231070;28;20353;-63
2022/04/17 10:01:23;;;;;;;1.30;0.83;;;17.20;57.50;;;;;;5241059;28;20212;-62
2022/04/17 10:04:19;;;;;;;1.33;1.00;;;17.20;57.60;;;;;;5245116;28;20189;-62
2022/04/17 10:07:14;;;;;;;1.67;1.20;;;17.30;57.50;;;;;;5230433;28;20201;-62
2022/04/17 10:10:07;;;;;;;1.33;0.90;;;17.20;57.30;;;;;;5239157;28;20208;-62
2022/04/17 10:13:01;;;;;;;1.43;1.00;;;17.20;57.40;;;;;;5227938;28;20197;-62
2022/04/17 10:15:55;;;;;;;2.07;1.20;;;17.20;57.40;;;;;;5227775;28;20201;-61
2022/04/17 10:18:48;;;;;;;1.10;0.80;;;17.20;57.30;;;;;;5228116;28;20189;-62
2022/04/17 10:21:41;;;;;;;1.10;1.00;;;17.20;57.30;;;;;;5226513;28;20761;-62
2022/04/17 10:24:37;;;;;;;1.37;1.00;;;17.20;57.30;;;;;;5226525;28;20193;-61
2022/04/17 10:27:34;;;;;;;1.37;1.07;;;17.20;57.30;;;;;;5249550;28;20201;-62
2022/04/17 10:30:38;;;;;;;0.93;0.80;;;17.20;57.10;;;;;;5226508;28;20335;-61
2022/04/17 10:33:45;;;;;;;1.33;0.80;;;17.20;57.00;;;;;;5226153;28;20193;-61
2022/04/17 10:36:55;;;;;;;0.87;0.80;;;17.20;57.00;;;;;;5246136;28;20188;-61
2022/04/17 10:39:51;;;;;;;1.47;1.10;;;17.20;57.00;;;;;;5245166;28;20362;-62
2022/04/17 10:42:56;;;;;;;1.00;0.70;;;17.20;57.10;;;;;;5241531;28;20264;-62
2022/04/17 10:46:11;;;;;;;0.70;0.70;;;17.20;56.90;;;;;;5229539;28;20193;-61
2022/04/17 10:49:05;;;;;;;1.00;0.80;;;17.20;57.00;;;;;;5226707;28;20189;-61
2022/04/17 10:51:59;;;;;;;1.23;0.80;;;17.20;57.00;;;;;;5243748;28;20711;-62
2022/04/17 10:54:51;;;;;;;1.10;0.73;;;17.20;56.80;;;;;;5246736;28;20279;-60
2022/04/17 10:57:45;;;;;;;1.27;0.80;;;17.20;57.00;;;;;;5247151;28;20659;-61
2022/04/17 11:00:38;;;;;;;1.00;0.90;;;17.20;56.90;;;;;;5246937;28;20212;-62
2022/04/17 11:03:30;;;;;;;0.80;0.80;;;17.20;57.00;;;;;;5247013;28;20202;-62
2022/04/17 11:06:30;;;;;;;0.80;0.70;;;17.20;57.10;;;;;;5248588;28;20224;-61
2022/04/17 11:09:25;;;;;;;1.23;0.67;;;17.20;56.90;;;;;;5243224;28;20595;-62
2022/04/17 11:12:27;;;;;;;1.00;0.90;;;17.20;57.00;;;;;;5244850;28;20287;-63
2022/04/17 11:15:25;;;;;;;1.50;1.00;;;17.20;57.00;;;;;;5246023;28;20278;-61
2022/04/17 11:18:20;;;;;;;1.13;0.83;;;17.20;57.00;;;;;;5245820;28;20192;-62
2022/04/17 11:21:12;;;;;;;0.97;0.70;;;17.20;57.00;;;;;;5226353;28;20212;-63
2022/04/17 11:24:04;;;;;;;0.80;0.60;;;17.20;57.00;;;;;;5236945;28;20197;-61
2022/04/17 11:27:10;;;;;;;1.07;0.80;;;17.20;57.00;;;;;;5247388;28;20199;-62
2022/04/17 11:30:05;;;;;;;0.90;0.67;;;17.20;57.00;;;;;;5246121;28;20601;-62
2022/04/17 11:32:57;;;;;;;1.43;0.90;;;17.20;56.90;;;;;;5246724;28;20223;-61
2022/04/17 11:35:50;;;;;;;1.00;0.70;;;17.20;57.10;;;;;;5245819;28;20207;-62
2022/04/17 11:38:46;;;;;;;0.87;0.80;;;17.20;57.00;;;;;;5243954;28;20744;-62
2022/04/17 11:41:38;;;;;;;2.73;0.80;;;17.20;57.20;;;;;;5246057;28;20212;-63
2022/04/17 11:44:32;;;;;;;1.13;0.70;;;17.10;57.20;;;;;;5245590;28;20571;-63
2022/04/17 11:47:24;;;;;;;1.67;0.80;;;17.20;57.40;;;;;;5240004;28;20196;-63
2022/04/17 11:50:23;;;;;;;2.57;1.10;;;17.20;57.30;;;;;;5242336;28;20200;-63
2022/04/17 11:53:16;;;;;;;2.30;1.00;;;17.20;57.10;;;;;;5224668;28;20550;-64
2022/04/17 11:56:08;;;;;;;3.53;1.20;;;17.10;56.60;;;;;;5244183;28;20207;-63
2022/04/17 11:59:04;;;;;;;3.07;1.60;;;17.20;56.60;;;;;;5256481;28;20200;-63
2022/04/17 12:02:12;;;;;;;3.60;1.50;;;17.10;56.50;;;;;;5241137;28;20680;-63
2022/04/17 12:05:10;;;;;;;2.90;1.50;;;17.10;56.60;;;;;;5243991;28;20192;-62
2022/04/17 12:08:09;;;;;;;3.37;1.00;;;17.20;56.60;;;;;;5243526;28;20563;-63
2022/04/17 12:11:01;;;;;;;4.50;1.50;;;17.10;56.60;;;;;;5225684;28;20830;-62
2022/04/17 12:13:57;;;;;;;3.40;1.40;;;17.10;56.60;;;;;;5245013;28;20197;-63
2022/04/17 12:16:52;;;;;;;5.57;1.57;;;17.10;56.80;;;;;;5244447;28;20188;-63
2022/04/17 12:19:51;;;;;;;2.83;1.40;;;17.20;56.90;;;;;;5245853;28;20279;-66
2022/04/17 12:22:43;;;;;;;2.33;1.23;;;17.20;56.90;;;;;;5245421;28;20212;-65
2022/04/17 12:25:37;;;;;;;3.67;1.37;;;17.20;57.00;;;;;;5245090;28;20200;-65
2022/04/17 12:28:29;;;;;;;2.70;1.10;;;17.10;56.70;;;;;;5244597;28;20570;-66
2022/04/17 12:31:21;;;;;;;3.87;1.20;;;17.10;57.40;;;;;;5249876;28;20220;-65
2022/04/17 12:34:19;;;;;;;3.47;1.17;;;17.10;57.00;;;;;;5238324;28;20204;-65
2022/04/17 12:37:21;;;;;;;1.97;1.10;;;17.10;57.00;;;;;;5225120;28;20657;-65
2022/04/17 12:40:15;;;;;;;1.13;0.93;;;17.20;57.00;;;;;;5241323;28;20215;-65
2022/04/17 12:43:17;;;;;;;2.63;1.13;;;17.20;56.90;;;;;;5251444;28;20686;-65
2022/04/17 12:46:10;;;;;;;2.57;1.10;;;17.20;57.00;;;;;;5249909;28;20195;-65
2022/04/17 12:49:05;;;;;;;3.03;1.30;;;17.10;57.00;;;;;;5247833;28;20192;-65
2022/04/17 12:51:59;;;;;;;1.50;1.00;;;17.20;57.10;;;;;;5245489;28;20220;-64
2022/04/17 12:54:53;;;;;;;2.20;1.03;;;17.10;57.10;;;;;;5240795;28;20204;-66
2022/04/17 12:57:55;;;;;;;1.50;1.00;;;17.20;57.10;;;;;;5250240;28;20196;-66
2022/04/17 13:00:56;;;;;;;2.42;1.02;;;17.10;57.00;;;;;;5249471;28;20411;-65
2022/04/17 13:03:49;;;;;;;5.38;1.50;;;17.20;56.60;;;;;;5248598;28;20411;-65
2022/04/17 13:06:41;;;;;;;2.17;1.00;;;17.30;56.30;;;;;;5249790;28;20226;-65
2022/04/17 13:09:33;;;;;;;3.20;0.90;;;17.30;56.50;;;;;;5249569;28;20279;-66
2022/04/17 13:12:32;;;;;;;4.33;1.00;;;17.20;56.30;;;;;;5229269;28;20589;-66
2022/04/17 13:15:30;;;;;;;2.03;0.90;;;17.20;56.30;;;;;;5228401;28;20208;-66
2022/04/17 13:18:24;;;;;;;2.60;1.00;;;17.20;56.80;;;;;;5228377;28;20201;-66
2022/04/17 13:21:16;;;;;;;2.73;1.10;;;17.20;56.20;;;;;;5227680;28;20818;-66
2022/04/17 13:24:10;;;;;;;3.13;1.10;;;17.20;56.00;;;;;;5239950;28;20192;-66
2022/04/17 13:27:03;;;;;;;1.93;0.93;;;17.20;56.00;;;;;;5228548;28;20192;-66
2022/04/17 13:29:56;;;;;;;1.40;0.80;;;17.20;56.00;;;;;;5228343;28;20276;-66
2022/04/17 13:32:49;;;;;;;1.67;0.77;;;17.10;55.70;;;;;;5234213;28;20822;-65
2022/04/17 13:35:41;;;;;;;1.70;0.97;;;17.10;55.70;;;;;;5246823;28;20203;-65
2022/04/17 13:38:36;;;;;;;2.50;1.00;;;17.10;55.80;;;;;;5248189;28;20423;-65
2022/04/17 13:41:29;;;;;;;1.90;0.87;;;17.20;55.30;;;;;;5248447;28;20212;-66
2022/04/17 13:44:21;;;;;;;1.43;0.70;;;17.20;55.30;;;;;;5248185;28;20568;-65
2022/04/17 13:47:14;;;;;;;1.60;1.00;;;17.20;55.70;;;;;;5256493;28;20216;-65
2022/04/17 13:50:09;;;;;;;2.67;0.80;;;17.20;55.70;;;;;;5267417;28;20196;-66
2022/04/17 13:53:02;;;;;;;1.53;0.70;;;17.20;55.90;;;;;;5232638;28;20315;-65
2022/04/17 13:55:55;;;;;;;0.73;0.70;;;17.20;56.00;;;;;;5227065;28;20576;-64
2022/04/17 13:58:47;;;;;;;1.20;0.73;;;17.20;56.00;;;;;;5228089;28;20668;-65
2022/04/17 14:01:39;;;;;;;1.43;0.93;;;17.20;55.90;;;;;;5228002;28;20209;-65
2022/04/17 14:04:33;;;;;;;0.90;0.73;;;17.20;56.10;;;;;;5227994;28;20194;-66
2022/04/17 14:07:25;;;;;;;0.93;0.63;;;17.20;56.10;;;;;;5244363;28;20574;-65
2022/04/17 14:10:18;;;;;;;1.53;0.83;;;17.10;56.00;;;;;;5248670;28;20192;-66
2022/04/17 14:13:10;;;;;;;0.83;0.77;;;17.10;55.90;;;;;;5239604;28;20274;-66
2022/04/17 14:16:03;;;;;;;0.97;0.60;;;17.10;55.90;;;;;;5247989;28;20706;-65
2022/04/17 14:18:55;;;;;;;1.60;0.80;;;17.20;56.00;;;;;;5246565;28;20258;-65
2022/04/17 14:21:49;;;;;;;1.40;0.77;;;17.10;56.00;;;;;;5228875;28;20217;-65
2022/04/17 14:24:41;;;;;;;1.97;0.70;;;17.10;56.00;;;;;;5227878;28;20189;-66
2022/04/17 14:27:33;;;;;;;2.57;0.70;;;17.10;56.00;;;;;;5226349;28;20575;-65
2022/04/17 14:30:25;;;;;;;0.97;0.70;;;17.10;56.10;;;;;;5226907;28;20199;-66
2022/04/17 14:33:17;;;;;;;0.90;0.70;;;17.10;56.10;;;;;;5226386;28;20193;-66
2022/04/17 14:36:09;;;;;;;1.40;0.70;;;17.10;56.00;;;;;;5235875;28;20204;-65
2022/04/17 14:39:03;;;;;;;1.43;0.70;;;17.10;56.10;;;;;;5250684;28;20192;-65
2022/04/17 14:41:55;;;;;;;1.10;0.77;;;17.10;56.00;;;;;;5247295;28;20212;-65
2022/04/17 14:44:47;;;;;;;1.87;0.70;;;17.10;55.90;;;;;;5247665;28;20333;-65
2022/04/17 14:47:39;;;;;;;1.10;0.80;;;17.10;56.00;;;;;;5247290;28;20553;-65
2022/04/17 14:50:31;;;;;;;0.97;0.60;;;17.10;56.10;;;;;;5242117;28;20207;-66
2022/04/17 14:53:24;;;;;;;1.43;0.60;;;17.10;56.20;;;;;;5231475;28;20663;-66
2022/04/17 14:56:18;;;;;;;1.70;0.80;;;17.10;56.20;;;;;;5244447;28;20207;-66
2022/04/17 14:59:11;;;;;;;1.30;0.70;;;17.10;56.10;;;;;;5247863;28;20204;-65
2022/04/17 15:02:03;;;;;;;0.97;0.60;;;17.10;56.20;;;;;;5247000;28;20354;-65
2022/04/17 15:04:55;;;;;;;1.30;0.73;;;17.20;56.30;;;;;;5246320;28;20196;-65
2022/04/17 15:07:47;;;;;;;1.07;0.67;;;17.10;56.20;;;;;;5247094;28;20394;-65
2022/04/17 15:10:40;;;;;;;1.37;0.87;;;17.10;56.40;;;;;;5247382;28;20712;-66
2022/04/17 15:13:34;;;;;;;1.73;0.70;;;17.10;56.20;;;;;;5247438;28;20192;-66